Kuala Lumpur International Airport
WMKK : now visible

Airfield :











YOU CAN JOIN US ON...

 
LOGIN :

Register | Disclaimer

   EN    FR    IT 

 









Legend :    VFR   Marginal VFR   IFR   Intensive IFR   Very Intensive IFR
Visi :
Ceiling :
>= 8 km
>= 3000ft
5 to 8 km
1000 to 3000 ft
1500m to 5 km
500 to 1000 ft
800 to 1500m
200 to 500 ft
< 800m
< 200 ft
Symbols :   Thunderstorms  Fog  Heavy snow  Heavy precipitations  Wind > 20 kt






- Airport Elevation : 69 ft
- IATA code : KUL


WMKK - Kuala Lumpur International

CURRENT METAR :
  • 250430Z VRB05KT 9999 SCT018 31/25 Q1009 NOSIG

EXPIRED METARs :
  • 250400Z 34003KT 280V040 9999 SCT018 33/22 Q1010 NOSIG
  • 250330Z VRB03KT 9999 FEW018 32/23 Q1010 NOSIG
  • 250300Z VRB04KT 9999 FEW018 31/23 Q1010 NOSIG
  • 250230Z 31004KT 240V030 9999 FEW017CB 30/24 Q1010 NOSIG
  • 250200Z 25004KT 170V300 9999 FEW017CB 30/24 Q1011 NOSIG

TAF TAF WMKK
Valid from the 25 at 00:00 until the 26 at 06:00 UTC


242300Z 2500/2606 24005KT 9999 FEW018
TEMPO 2506/2510 4000 TSRA FEW017CB SCT022
WMFC FIR / Asia



MET'MAP, your aeronautical weather chart ! - Copyright ORBIFLY December 2007 - Disclaimer

ORBIFLY MET'MAP TEAM :

Programming & Development : Alexandra Zaïnal
Concept & original design : Baudouin d'Aumeries
Assistance for programming : Marc-Olivier Méhu
Technical & hardware support : Manuel Goepfert

Contact : metmap@orbifly.com




SOURCES & CREDITS :

   NOAA       Earth
Advisory